createdAt,value
2023-03-31T00:01:44.072Z,3.60
2023-03-31T00:04:02.758Z,4.10
2023-03-31T00:06:19.289Z,2.30
2023-03-31T00:08:36.111Z,1.90
2023-03-31T00:10:49.756Z,2.70
2023-03-31T00:12:59.836Z,2.40
2023-03-31T00:15:11.785Z,2.10
2023-03-31T00:17:22.041Z,3.00
2023-03-31T00:19:33.962Z,2.50
2023-03-31T00:21:43.742Z,5.10
2023-03-31T00:23:54.915Z,2.90
2023-03-31T00:26:05.216Z,4.90
2023-03-31T00:28:15.200Z,4.70
2023-03-31T00:30:25.813Z,2.20
2023-03-31T00:32:36.356Z,1.90
2023-03-31T00:34:47.538Z,2.60
2023-03-31T00:36:58.665Z,2.10
2023-03-31T00:39:10.421Z,2.30
2023-03-31T00:41:20.600Z,2.00
2023-03-31T00:43:35.974Z,3.10
2023-03-31T00:45:46.737Z,2.80
2023-03-31T00:48:03.766Z,1.80
2023-03-31T00:50:20.966Z,1.90
2023-03-31T00:52:36.323Z,2.80
2023-03-31T00:54:49.949Z,2.70
2023-03-31T00:57:03.868Z,3.00
2023-03-31T00:59:16.376Z,2.70
2023-03-31T01:01:27.545Z,1.90
2023-03-31T01:03:39.076Z,2.10
2023-03-31T01:05:51.948Z,1.60
2023-03-31T01:08:03.978Z,1.90
2023-03-31T01:10:15.500Z,2.20
2023-03-31T01:12:27.361Z,2.70
2023-03-31T01:14:37.538Z,3.10
2023-03-31T01:16:49.938Z,2.90
2023-03-31T01:19:00.509Z,2.50
2023-03-31T01:21:47.888Z,3.00
2023-03-31T01:24:19.748Z,2.60
2023-03-31T01:26:56.634Z,3.20
2023-03-31T01:29:16.620Z,3.20
2023-03-31T01:31:54.823Z,2.60
2023-03-31T01:34:41.021Z,3.40
2023-03-31T01:37:22.150Z,2.40
2023-03-31T01:39:52.820Z,3.10
2023-03-31T01:42:13.093Z,2.70
2023-03-31T01:44:32.419Z,2.80
2023-03-31T01:46:49.005Z,3.00
2023-03-31T01:49:08.599Z,3.40
2023-03-31T01:51:24.755Z,3.70
2023-03-31T01:53:40.373Z,2.70
2023-03-31T01:56:03.619Z,2.40
2023-03-31T01:58:20.679Z,3.00
2023-03-31T02:00:35.362Z,2.50
2023-03-31T02:02:50.351Z,2.30
2023-03-31T02:05:03.755Z,2.50
2023-03-31T02:07:18.510Z,2.80
2023-03-31T02:09:31.742Z,2.70
2023-03-31T02:11:44.395Z,2.60
2023-03-31T02:13:58.579Z,2.60
2023-03-31T02:16:13.439Z,2.80
2023-03-31T02:18:27.899Z,2.70
2023-03-31T02:20:37.989Z,2.00
2023-03-31T02:22:52.232Z,2.00
2023-03-31T02:25:03.681Z,4.00
2023-03-31T02:27:20.590Z,3.70
2023-03-31T02:29:30.849Z,2.60
2023-03-31T02:31:46.463Z,2.60
2023-03-31T02:33:57.273Z,2.50
2023-03-31T02:36:09.239Z,1.60
2023-03-31T02:38:20.017Z,1.80
2023-03-31T02:40:31.274Z,2.90
2023-03-31T02:42:41.882Z,3.70
2023-03-31T02:44:52.104Z,2.70
2023-03-31T02:47:02.994Z,2.50
2023-03-31T02:49:15.190Z,2.90
2023-03-31T02:51:48.669Z,3.20
2023-03-31T02:54:12.293Z,2.00
2023-03-31T02:56:53.375Z,2.50
2023-03-31T02:59:20.323Z,2.00
2023-03-31T03:01:45.644Z,4.00
2023-03-31T03:04:10.044Z,3.40
2023-03-31T03:06:38.410Z,3.00
2023-03-31T03:09:18.994Z,2.90
2023-03-31T03:11:38.541Z,4.70
2023-03-31T03:13:53.602Z,3.00
2023-03-31T03:16:09.401Z,3.60
2023-03-31T03:18:19.894Z,4.10
2023-03-31T03:20:30.120Z,4.10
2023-03-31T03:22:42.025Z,5.20
2023-03-31T03:24:52.783Z,4.20
2023-03-31T03:27:02.953Z,2.90
2023-03-31T03:29:13.725Z,3.40
2023-03-31T03:31:24.566Z,2.50
2023-03-31T03:33:34.368Z,2.70
2023-03-31T03:35:44.506Z,2.20
2023-03-31T03:37:54.193Z,2.40
2023-03-31T03:40:06.401Z,2.70
2023-03-31T03:42:16.871Z,2.80
2023-03-31T03:44:26.998Z,2.70
2023-03-31T03:46:37.502Z,2.30
2023-03-31T03:48:47.794Z,2.40
2023-03-31T03:50:58.003Z,2.60
2023-03-31T03:53:07.893Z,2.80
2023-03-31T03:55:18.351Z,2.20
2023-03-31T03:57:29.087Z,2.00
2023-03-31T03:59:40.998Z,2.80
2023-03-31T04:01:51.117Z,1.80
2023-03-31T04:04:01.189Z,2.00
2023-03-31T04:06:11.540Z,1.80
2023-03-31T04:08:22.008Z,1.70
2023-03-31T04:10:32.128Z,1.80
2023-03-31T04:12:43.264Z,1.70
2023-03-31T04:14:53.297Z,2.10
2023-03-31T04:17:03.966Z,2.30
2023-03-31T04:19:17.944Z,4.10
2023-03-31T04:21:28.046Z,3.70
2023-03-31T04:23:39.035Z,2.40
2023-03-31T04:25:50.545Z,2.70
2023-03-31T04:28:01.008Z,4.10
2023-03-31T04:30:13.755Z,2.20
2023-03-31T04:34:36.422Z,2.20
2023-03-31T04:36:48.851Z,3.20
2023-03-31T04:38:59.895Z,2.10
2023-03-31T04:41:10.309Z,2.20
2023-03-31T04:43:20.965Z,2.60
2023-03-31T04:45:30.740Z,3.30
2023-03-31T04:47:40.723Z,2.70
2023-03-31T04:49:50.560Z,3.70
2023-03-31T04:52:00.804Z,3.30
2023-03-31T04:54:10.965Z,3.90
2023-03-31T04:56:21.006Z,2.70
2023-03-31T04:58:32.031Z,2.90
2023-03-31T05:00:41.946Z,2.90
2023-03-31T05:02:52.052Z,3.00
2023-03-31T05:05:01.801Z,3.10
2023-03-31T05:07:11.863Z,2.20
2023-03-31T05:09:22.640Z,2.80
2023-03-31T05:11:32.374Z,2.80
2023-03-31T05:13:42.314Z,3.30
2023-03-31T05:15:52.496Z,2.30
2023-03-31T05:18:03.563Z,2.70
2023-03-31T05:20:15.211Z,3.80
2023-03-31T05:22:25.083Z,3.40
2023-03-31T05:24:34.802Z,4.10
2023-03-31T05:26:48.962Z,3.20
2023-03-31T05:28:58.984Z,3.80
2023-03-31T05:31:11.767Z,2.50
2023-03-31T05:33:21.543Z,2.70
2023-03-31T05:35:31.573Z,3.50
2023-03-31T05:37:41.826Z,3.10
2023-03-31T05:39:51.634Z,3.20
2023-03-31T05:42:01.364Z,2.20
2023-03-31T05:44:11.893Z,2.80
2023-03-31T05:46:22.496Z,2.30
2023-03-31T05:48:32.459Z,2.80
2023-03-31T05:50:43.853Z,3.30
2023-03-31T05:52:53.566Z,1.70
2023-03-31T05:55:03.455Z,3.30
2023-03-31T05:57:14.392Z,1.70
2023-03-31T05:59:24.845Z,1.70
2023-03-31T06:01:35.549Z,2.60
2023-03-31T06:03:45.623Z,1.50
2023-03-31T06:05:56.282Z,1.30
2023-03-31T06:08:06.655Z,3.50
2023-03-31T06:10:16.864Z,1.90
2023-03-31T06:12:26.810Z,1.40
2023-03-31T06:14:36.562Z,1.60
2023-03-31T06:16:48.218Z,1.90
2023-03-31T06:18:58.495Z,1.80
2023-03-31T06:21:10.453Z,2.40
2023-03-31T06:23:20.334Z,2.80
2023-03-31T06:25:37.168Z,3.00
2023-03-31T06:27:50.672Z,3.10
2023-03-31T06:30:00.635Z,3.40
2023-03-31T06:32:11.145Z,3.20
2023-03-31T06:34:21.546Z,1.90
2023-03-31T06:36:31.767Z,1.70
2023-03-31T06:38:42.031Z,1.70
2023-03-31T06:40:51.768Z,4.20
2023-03-31T06:43:01.821Z,3.30
2023-03-31T06:45:13.596Z,4.70
2023-03-31T06:47:23.867Z,1.20
2023-03-31T06:49:33.460Z,1.30
2023-03-31T06:51:43.322Z,2.10
2023-03-31T06:53:53.110Z,4.90
2023-03-31T06:56:03.120Z,3.90
2023-03-31T06:58:13.487Z,2.30
2023-03-31T07:00:26.439Z,0.80
2023-03-31T07:02:37.474Z,1.30
2023-03-31T07:04:47.499Z,2.60
2023-03-31T07:06:57.592Z,2.50
2023-03-31T07:09:07.322Z,1.70
2023-03-31T07:11:17.028Z,1.70
2023-03-31T07:13:27.308Z,1.20
2023-03-31T07:15:37.441Z,1.50
2023-03-31T07:17:51.599Z,2.40
2023-03-31T07:20:01.580Z,1.10
2023-03-31T07:22:11.180Z,1.80
2023-03-31T07:24:21.014Z,2.20
2023-03-31T07:26:30.909Z,1.60
2023-03-31T07:28:40.949Z,1.80
2023-03-31T07:30:51.146Z,1.20
2023-03-31T07:33:01.220Z,1.70
2023-03-31T07:35:13.003Z,2.00
2023-03-31T07:37:23.685Z,1.60
2023-03-31T07:39:33.349Z,1.60
2023-03-31T07:41:43.440Z,1.10
2023-03-31T07:43:54.060Z,1.10
2023-03-31T07:46:04.028Z,1.10
2023-03-31T07:48:14.222Z,3.30
2023-03-31T07:50:24.888Z,0.90
2023-03-31T07:52:35.923Z,1.10
2023-03-31T07:54:46.138Z,1.10
2023-03-31T07:56:56.519Z,1.10
2023-03-31T07:59:07.527Z,0.90
2023-03-31T08:01:19.672Z,3.00
2023-03-31T08:03:29.409Z,2.10
2023-03-31T08:05:39.359Z,1.10
2023-03-31T08:07:51.402Z,1.30
2023-03-31T08:10:01.897Z,0.90
2023-03-31T08:12:12.632Z,0.60
2023-03-31T08:14:34.130Z,0.60
2023-03-31T08:16:50.458Z,0.90
2023-03-31T08:19:00.546Z,0.90
2023-03-31T08:21:11.487Z,1.90
2023-03-31T08:23:21.298Z,0.60
2023-03-31T08:25:31.160Z,0.60
2023-03-31T08:27:42.494Z,0.70
2023-03-31T08:29:52.431Z,1.10
2023-03-31T08:32:02.202Z,0.70
2023-03-31T08:34:12.549Z,0.70
2023-03-31T08:36:22.634Z,0.50
2023-03-31T08:38:33.390Z,0.60
2023-03-31T08:40:43.838Z,0.60
2023-03-31T08:42:59.310Z,0.90
2023-03-31T08:45:14.098Z,1.30
2023-03-31T08:47:27.973Z,0.90
2023-03-31T08:49:43.210Z,0.80
2023-03-31T08:51:55.551Z,1.00
2023-03-31T08:54:08.617Z,0.90
2023-03-31T08:56:21.428Z,1.00
2023-03-31T08:58:41.906Z,0.90
2023-03-31T09:00:58.896Z,1.10
2023-03-31T09:03:17.632Z,2.00
2023-03-31T09:06:00.248Z,0.90
2023-03-31T09:08:21.770Z,1.00
2023-03-31T09:12:54.150Z,0.60
2023-03-31T09:15:06.561Z,0.70
2023-03-31T09:17:25.793Z,0.70
2023-03-31T09:19:42.087Z,0.70
2023-03-31T09:21:55.350Z,0.80
2023-03-31T09:24:10.667Z,0.70
2023-03-31T09:26:31.231Z,0.90
2023-03-31T09:28:42.367Z,2.10
2023-03-31T09:30:52.715Z,1.00
2023-03-31T09:33:13.050Z,1.60
2023-03-31T09:35:25.963Z,1.50
2023-03-31T09:37:36.876Z,1.10
2023-03-31T09:39:47.031Z,0.60
2023-03-31T09:41:57.143Z,0.70
2023-03-31T09:44:08.341Z,0.70
2023-03-31T09:46:26.964Z,0.50
2023-03-31T09:48:39.947Z,1.00
2023-03-31T09:50:54.595Z,1.10
2023-03-31T09:53:06.173Z,0.70
2023-03-31T09:55:38.334Z,0.70
2023-03-31T09:57:49.897Z,0.60
2023-03-31T10:00:14.345Z,0.80
2023-03-31T10:02:38.258Z,1.90
2023-03-31T10:04:50.729Z,0.70
2023-03-31T10:07:01.648Z,1.00
2023-03-31T10:09:13.062Z,0.70
2023-03-31T10:11:24.023Z,0.90
2023-03-31T10:13:44.318Z,0.70
2023-03-31T10:15:57.038Z,0.80
2023-03-31T10:18:06.971Z,0.90
2023-03-31T10:20:32.905Z,0.70
2023-03-31T10:22:47.856Z,1.10
2023-03-31T10:25:09.514Z,0.90
2023-03-31T10:27:25.928Z,0.80
2023-03-31T10:29:37.009Z,0.90
2023-03-31T10:31:46.914Z,1.50
2023-03-31T10:33:58.812Z,2.70
2023-03-31T10:36:16.077Z,1.80
2023-03-31T10:38:32.235Z,2.20
2023-03-31T10:40:45.403Z,1.70
2023-03-31T10:43:04.057Z,2.00
2023-03-31T10:45:36.468Z,1.70
2023-03-31T10:47:55.096Z,1.30
2023-03-31T10:50:15.367Z,1.20
2023-03-31T10:52:27.869Z,1.60
2023-03-31T10:54:38.367Z,1.20
2023-03-31T10:56:52.701Z,1.00
2023-03-31T10:59:18.150Z,1.20
2023-03-31T11:01:40.972Z,0.90
2023-03-31T11:06:19.071Z,0.90
2023-03-31T11:08:43.340Z,0.70
2023-03-31T11:11:29.756Z,1.00
2023-03-31T11:13:44.648Z,0.70
2023-03-31T11:16:02.625Z,0.90
2023-03-31T11:18:29.972Z,0.80
2023-03-31T11:20:49.027Z,0.60
2023-03-31T11:23:08.919Z,0.90
2023-03-31T11:25:35.620Z,1.30
2023-03-31T11:28:03.957Z,2.10
2023-03-31T11:30:22.067Z,1.10
2023-03-31T11:32:42.990Z,0.80
2023-03-31T11:35:09.927Z,1.10
2023-03-31T11:37:46.497Z,1.20
2023-03-31T11:40:08.629Z,1.70
2023-03-31T11:42:21.990Z,1.50
2023-03-31T11:44:38.479Z,1.10
2023-03-31T11:46:56.093Z,1.10
2023-03-31T11:49:09.119Z,0.80
2023-03-31T11:51:23.778Z,1.00
2023-03-31T11:53:36.565Z,1.00
2023-03-31T11:55:49.150Z,1.10
2023-03-31T11:58:06.255Z,1.40
2023-03-31T12:00:22.875Z,1.10
2023-03-31T12:02:41.746Z,1.40
2023-03-31T12:04:54.101Z,1.10
2023-03-31T12:09:23.544Z,1.00
2023-03-31T12:11:37.987Z,0.80
2023-03-31T12:13:58.058Z,0.80
2023-03-31T12:16:13.611Z,0.90
2023-03-31T12:18:28.101Z,0.90
2023-03-31T12:20:43.176Z,1.00
2023-03-31T12:22:54.133Z,2.40
2023-03-31T12:25:04.343Z,0.70
2023-03-31T12:27:19.340Z,1.10
2023-03-31T12:29:34.529Z,0.80
2023-03-31T12:31:47.026Z,1.10
2023-03-31T12:34:01.379Z,0.80
2023-03-31T12:36:24.708Z,1.60
2023-03-31T12:38:44.969Z,1.20
2023-03-31T12:41:09.301Z,0.90
2023-03-31T12:43:33.809Z,1.00
2023-03-31T12:45:49.323Z,1.10
2023-03-31T12:48:31.170Z,1.10
2023-03-31T12:51:04.812Z,1.30
2023-03-31T12:53:23.403Z,1.30
2023-03-31T12:55:49.740Z,2.10
2023-03-31T12:58:35.492Z,1.20
2023-03-31T13:01:07.219Z,1.70
2023-03-31T13:03:59.193Z,1.40
2023-03-31T13:06:12.230Z,1.30
2023-03-31T13:08:55.252Z,1.90
2023-03-31T13:11:05.378Z,1.30
2023-03-31T13:13:18.966Z,1.70
2023-03-31T13:15:30.489Z,1.40
2023-03-31T13:17:42.111Z,2.20
2023-03-31T13:19:52.445Z,2.60
2023-03-31T13:22:03.762Z,3.00
2023-03-31T13:24:14.742Z,2.30
2023-03-31T13:26:42.128Z,1.80
2023-03-31T13:29:21.488Z,2.00
2023-03-31T13:32:20.988Z,1.50
2023-03-31T13:34:33.594Z,2.10
2023-03-31T13:37:01.843Z,2.00
2023-03-31T13:39:30.177Z,1.80
2023-03-31T13:41:58.727Z,1.60
2023-03-31T13:44:35.590Z,1.60
2023-03-31T13:47:19.427Z,0.90
2023-03-31T13:49:55.928Z,1.30
2023-03-31T13:52:11.618Z,0.90
2023-03-31T13:54:59.986Z,1.30
2023-03-31T13:57:41.624Z,0.90
2023-03-31T14:00:19.208Z,1.00
2023-03-31T14:02:54.189Z,0.90
2023-03-31T14:05:28.051Z,1.30
2023-03-31T14:07:45.957Z,3.20
2023-03-31T14:09:58.836Z,1.10
2023-03-31T14:12:25.165Z,1.50
2023-03-31T14:14:35.585Z,1.80
2023-03-31T14:16:48.861Z,2.40
2023-03-31T14:21:44.288Z,0.90
2023-03-31T14:24:10.169Z,1.20
2023-03-31T14:26:34.548Z,0.90
2023-03-31T14:29:01.754Z,1.00
2023-03-31T14:31:22.554Z,0.80
2023-03-31T14:33:40.856Z,1.70
2023-03-31T14:35:59.861Z,2.60
2023-03-31T14:38:14.249Z,0.90
2023-03-31T14:40:25.219Z,1.00
2023-03-31T14:42:41.664Z,0.80
2023-03-31T14:44:57.216Z,1.10
2023-03-31T14:47:07.453Z,0.60
2023-03-31T14:49:27.822Z,1.40
2023-03-31T14:51:37.596Z,1.30
2023-03-31T14:53:47.853Z,1.10
2023-03-31T14:56:04.375Z,0.80
2023-03-31T14:58:20.134Z,1.40
2023-03-31T15:00:33.785Z,0.90
2023-03-31T15:02:46.620Z,0.90
2023-03-31T15:07:08.138Z,1.10
2023-03-31T15:09:26.142Z,1.50
2023-03-31T15:11:36.476Z,1.70
2023-03-31T15:14:01.079Z,1.90
2023-03-31T15:16:38.308Z,2.00
2023-03-31T15:18:49.610Z,1.20
2023-03-31T15:20:59.986Z,3.60
2023-03-31T15:23:25.209Z,2.20
2023-03-31T15:25:39.740Z,1.60
2023-03-31T15:27:54.206Z,2.30
2023-03-31T15:30:07.206Z,1.90
2023-03-31T15:32:22.248Z,1.90
2023-03-31T15:34:34.954Z,1.00
2023-03-31T15:39:00.116Z,2.00
2023-03-31T15:41:19.739Z,1.90
2023-03-31T15:43:35.019Z,1.60
2023-03-31T15:45:53.320Z,2.30
2023-03-31T15:48:06.052Z,1.90
2023-03-31T15:50:17.556Z,1.30
2023-03-31T15:52:34.479Z,1.20
2023-03-31T15:54:45.328Z,2.30
2023-03-31T15:56:58.878Z,2.20
2023-03-31T15:59:09.045Z,1.20
2023-03-31T16:01:20.087Z,1.30
2023-03-31T16:03:39.131Z,1.30
2023-03-31T16:05:56.856Z,2.50
2023-03-31T16:08:13.536Z,1.60
2023-03-31T16:10:25.426Z,1.30
2023-03-31T16:12:38.239Z,1.60
2023-03-31T16:17:04.553Z,1.20
2023-03-31T16:19:14.924Z,1.10
2023-03-31T16:21:31.727Z,1.80
2023-03-31T16:23:45.635Z,1.30
2023-03-31T16:25:56.174Z,1.00
2023-03-31T16:28:06.149Z,0.80
2023-03-31T16:30:19.749Z,2.40
2023-03-31T16:32:29.641Z,1.60
2023-03-31T16:34:53.540Z,2.40
2023-03-31T16:37:09.010Z,2.20
2023-03-31T16:39:18.677Z,1.40
2023-03-31T16:41:30.382Z,1.60
2023-03-31T16:43:40.110Z,2.90
2023-03-31T16:45:51.967Z,2.00
2023-03-31T16:48:12.867Z,1.70
2023-03-31T16:50:25.785Z,2.60
2023-03-31T16:52:35.702Z,2.50
2023-03-31T16:54:47.069Z,1.50
2023-03-31T16:56:57.056Z,1.40
2023-03-31T16:59:08.648Z,1.60
2023-03-31T17:01:18.743Z,2.60
2023-03-31T17:03:29.278Z,2.20
2023-03-31T17:05:42.838Z,1.70
2023-03-31T17:07:52.790Z,2.60
2023-03-31T17:10:02.939Z,2.40
2023-03-31T17:12:12.872Z,2.10
2023-03-31T17:14:22.875Z,2.30
2023-03-31T17:16:44.898Z,2.30
2023-03-31T17:18:58.307Z,1.20
2023-03-31T17:21:14.096Z,1.50
2023-03-31T17:23:24.759Z,1.30
2023-03-31T17:25:35.070Z,1.10
2023-03-31T17:27:45.455Z,1.70
2023-03-31T17:29:56.334Z,1.40
2023-03-31T17:32:06.739Z,1.60
2023-03-31T17:34:17.621Z,1.90
2023-03-31T17:36:27.583Z,2.20
2023-03-31T17:38:37.701Z,2.00
2023-03-31T17:40:48.277Z,2.70
2023-03-31T17:42:58.907Z,2.30
2023-03-31T17:45:12.101Z,1.70
2023-03-31T17:47:22.394Z,1.70
2023-03-31T17:49:32.889Z,2.00
2023-03-31T17:51:42.888Z,1.20
2023-03-31T17:53:52.556Z,1.50
2023-03-31T17:56:02.947Z,1.80
2023-03-31T17:58:14.326Z,1.90
2023-03-31T18:00:25.104Z,1.80
2023-03-31T18:02:35.194Z,2.30
2023-03-31T18:04:45.502Z,2.20
2023-03-31T18:06:56.065Z,2.30
2023-03-31T18:09:06.555Z,1.50
2023-03-31T18:11:16.950Z,1.50
2023-03-31T18:13:27.937Z,2.40
2023-03-31T18:15:38.244Z,2.10
2023-03-31T18:17:48.448Z,3.40
2023-03-31T18:19:59.574Z,2.90
2023-03-31T18:22:09.863Z,1.40
2023-03-31T18:24:23.177Z,2.00
2023-03-31T18:26:36.265Z,1.80
2023-03-31T18:28:46.436Z,1.10
2023-03-31T18:30:56.468Z,1.70
2023-03-31T18:33:07.176Z,3.30
2023-03-31T18:35:18.118Z,2.20
2023-03-31T18:37:28.265Z,2.30
2023-03-31T18:39:38.364Z,1.80
2023-03-31T18:41:50.303Z,1.60
2023-03-31T18:44:00.867Z,2.10
2023-03-31T18:46:11.296Z,1.60
2023-03-31T18:48:22.678Z,2.00
2023-03-31T18:50:32.705Z,2.20
2023-03-31T18:52:42.886Z,1.80
2023-03-31T18:54:53.456Z,1.90
2023-03-31T18:57:03.645Z,1.20
2023-03-31T18:59:13.543Z,1.20
2023-03-31T19:01:24.576Z,1.30
2023-03-31T19:03:35.307Z,0.90
2023-03-31T19:05:45.400Z,0.90
2023-03-31T19:07:57.700Z,1.10
2023-03-31T19:10:08.588Z,1.30
2023-03-31T19:12:18.536Z,2.10
2023-03-31T19:14:28.972Z,3.30
2023-03-31T19:16:42.766Z,2.20
2023-03-31T19:18:52.512Z,1.90
2023-03-31T19:21:03.084Z,1.80
2023-03-31T19:23:15.775Z,1.70
2023-03-31T19:27:34.933Z,2.00
2023-03-31T19:29:45.078Z,1.80
2023-03-31T19:31:54.832Z,2.30
2023-03-31T19:34:05.123Z,1.80
2023-03-31T19:36:15.261Z,1.70
2023-03-31T19:38:27.304Z,3.10
2023-03-31T19:40:37.781Z,1.50
2023-03-31T19:42:47.484Z,2.40
2023-03-31T19:44:57.500Z,2.60
2023-03-31T19:47:08.164Z,2.40
2023-03-31T19:49:20.631Z,2.00
2023-03-31T19:51:30.738Z,2.30
2023-03-31T19:53:41.230Z,2.80
2023-03-31T19:55:59.459Z,1.80
2023-03-31T19:58:09.908Z,2.00
2023-03-31T20:00:21.502Z,1.70
2023-03-31T20:02:31.256Z,3.90
2023-03-31T20:04:42.210Z,1.60
2023-03-31T20:06:53.859Z,2.70
2023-03-31T20:09:05.076Z,2.50
2023-03-31T20:11:16.786Z,1.80
2023-03-31T20:13:26.832Z,1.60
2023-03-31T20:15:38.897Z,1.90
2023-03-31T20:17:49.752Z,1.90
2023-03-31T20:20:00.029Z,1.60
2023-03-31T20:22:09.876Z,1.90
2023-03-31T20:24:21.107Z,2.10
2023-03-31T20:26:32.946Z,2.70
2023-03-31T20:28:43.596Z,3.00
2023-03-31T20:30:56.418Z,1.30
2023-03-31T20:35:16.717Z,1.30
2023-03-31T20:37:26.620Z,1.80
2023-03-31T20:39:36.510Z,2.20
2023-03-31T20:41:46.939Z,2.50
2023-03-31T20:43:57.418Z,3.20
2023-03-31T20:46:08.798Z,4.10
2023-03-31T20:48:18.738Z,2.50
2023-03-31T20:50:29.181Z,3.00
2023-03-31T20:52:39.150Z,2.90
2023-03-31T20:54:48.961Z,3.50
2023-03-31T20:57:01.443Z,3.00
2023-03-31T20:59:13.030Z,2.70
2023-03-31T21:01:24.248Z,3.90
2023-03-31T21:03:34.532Z,2.80
2023-03-31T21:05:49.099Z,2.80
2023-03-31T21:07:59.284Z,2.60
2023-03-31T21:10:10.827Z,2.40
2023-03-31T21:12:21.837Z,3.40
2023-03-31T21:14:31.912Z,2.90
2023-03-31T21:16:42.135Z,2.00
2023-03-31T21:18:55.205Z,2.50
2023-03-31T21:21:06.590Z,2.00
2023-03-31T21:23:19.077Z,2.40
2023-03-31T21:25:29.978Z,2.30
2023-03-31T21:27:40.233Z,3.30
2023-03-31T21:29:51.034Z,2.40
2023-03-31T21:32:02.596Z,3.80
2023-03-31T21:34:12.736Z,3.80
2023-03-31T21:36:24.613Z,3.00
2023-03-31T21:38:36.684Z,3.60
2023-03-31T21:40:48.784Z,2.10
2023-03-31T21:42:58.858Z,2.50
2023-03-31T21:45:10.085Z,4.00
2023-03-31T21:47:20.066Z,2.80
2023-03-31T21:49:30.507Z,4.70
2023-03-31T21:51:40.966Z,3.90
2023-03-31T21:53:51.815Z,3.60
2023-03-31T21:56:01.573Z,4.20
2023-03-31T21:58:12.020Z,3.30
2023-03-31T22:00:22.676Z,2.30
2023-03-31T22:02:33.522Z,3.90
2023-03-31T22:04:43.805Z,2.80
2023-03-31T22:06:53.660Z,2.90
2023-03-31T22:09:03.482Z,4.10
2023-03-31T22:11:14.663Z,3.10
2023-03-31T22:13:25.241Z,3.80
2023-03-31T22:15:35.351Z,3.50
2023-03-31T22:17:45.626Z,3.10
2023-03-31T22:19:55.855Z,3.50
2023-03-31T22:22:05.781Z,3.60
2023-03-31T22:24:16.382Z,4.30
2023-03-31T22:26:27.555Z,3.50
2023-03-31T22:28:37.597Z,3.10
2023-03-31T22:30:47.851Z,4.10
2023-03-31T22:32:57.600Z,2.90
2023-03-31T22:35:08.159Z,3.00
2023-03-31T22:37:19.847Z,3.60
2023-03-31T22:39:29.685Z,3.00
2023-03-31T22:41:39.727Z,4.60
2023-03-31T22:43:49.967Z,3.70
2023-03-31T22:46:03.936Z,4.00
2023-03-31T22:48:14.687Z,3.80
2023-03-31T22:50:24.342Z,3.90
2023-03-31T22:52:34.266Z,4.00
2023-03-31T22:54:44.516Z,3.60
2023-03-31T22:56:54.979Z,5.80
2023-03-31T22:59:05.225Z,3.10
2023-03-31T23:01:17.943Z,4.00
2023-03-31T23:03:27.857Z,3.00
2023-03-31T23:05:38.767Z,3.30
2023-03-31T23:07:48.418Z,4.60
2023-03-31T23:09:58.638Z,3.10
2023-03-31T23:12:08.608Z,2.80
2023-03-31T23:14:18.334Z,2.00
2023-03-31T23:16:28.896Z,2.20
2023-03-31T23:18:44.682Z,2.80
2023-03-31T23:20:54.851Z,2.70
2023-03-31T23:23:05.122Z,2.80
2023-03-31T23:25:15.568Z,2.60
2023-03-31T23:27:26.319Z,3.10
2023-03-31T23:29:36.686Z,2.00
2023-03-31T23:31:46.872Z,3.50
2023-03-31T23:33:56.784Z,1.90
2023-03-31T23:36:09.093Z,4.50
2023-03-31T23:38:19.184Z,2.40
2023-03-31T23:40:29.503Z,2.90
2023-03-31T23:42:39.763Z,2.60
2023-03-31T23:44:49.401Z,2.00
2023-03-31T23:46:59.224Z,2.90
2023-03-31T23:49:09.835Z,2.10
2023-03-31T23:51:20.028Z,3.10
2023-03-31T23:53:29.635Z,3.20
2023-03-31T23:55:39.763Z,4.00
2023-03-31T23:57:49.513Z,2.80
2023-03-31T23:59:59.153Z,1.90
